createdAt,value
2023-04-12T00:00:00.000Z,3
2023-04-12T00:15:00.000Z,3.06
2023-04-12T00:30:00.000Z,2.93
2023-04-12T00:45:00.000Z,3.04
2023-04-12T01:00:00.000Z,3.06
2023-04-12T01:15:00.000Z,3.09
2023-04-12T01:30:00.000Z,3.13
2023-04-12T01:45:00.000Z,2.96
2023-04-12T02:00:00.000Z,3.15
2023-04-12T02:15:00.000Z,3.18
2023-04-12T02:30:00.000Z,3.01
2023-04-12T02:45:00.000Z,3.06
2023-04-12T03:00:00.000Z,3.24
2023-04-12T03:15:00.000Z,3.12
2023-04-12T03:30:00.000Z,3.22
2023-04-12T03:45:00.000Z,3.25
2023-04-12T04:00:00.000Z,3.13
2023-04-12T04:15:00.000Z,3.12
2023-04-12T04:30:00.000Z,3.25
2023-04-12T04:45:00.000Z,3.29
2023-04-12T05:15:00.000Z,3.27
2023-04-12T05:30:00.000Z,3.18
2023-04-12T05:45:00.000Z,3.22
2023-04-12T06:00:00.000Z,3.14
2023-04-12T06:15:00.000Z,3.48
2023-04-12T06:30:00.000Z,3.14
2023-04-12T06:45:00.000Z,3.19
2023-04-12T07:00:00.000Z,3.02
2023-04-12T07:15:00.000Z,3.01
2023-04-12T07:30:00.000Z,3.12
2023-04-12T07:45:00.000Z,3.4
2023-04-12T08:00:00.000Z,3.98
2023-04-12T08:15:00.000Z,3.07
2023-04-12T08:30:00.000Z,3.19
2023-04-12T08:45:00.000Z,3.2
2023-04-12T09:00:00.000Z,3.28
2023-04-12T09:15:00.000Z,3.14
2023-04-12T09:30:00.000Z,3.05
2023-04-12T09:45:00.000Z,2.82
2023-04-12T10:00:00.000Z,3.07
2023-04-12T10:15:00.000Z,5.14
2023-04-12T10:30:00.000Z,3.08
2023-04-12T10:45:00.000Z,3.42
2023-04-12T11:00:00.000Z,2.79
2023-04-12T11:15:00.000Z,3.33
2023-04-12T11:30:00.000Z,3.18
2023-04-12T11:45:00.000Z,2.13
2023-04-12T12:00:00.000Z,1.78
2023-04-12T12:15:00.000Z,1.59
2023-04-12T12:30:00.000Z,1.39
2023-04-12T12:45:00.000Z,1.56
2023-04-12T13:00:00.000Z,1.52
2023-04-12T13:15:00.000Z,1.22
2023-04-12T13:30:00.000Z,1.34
2023-04-12T13:45:00.000Z,1.32
2023-04-12T14:00:00.000Z,1.25
2023-04-12T14:15:00.000Z,1.39
2023-04-12T14:30:00.000Z,1.6
2023-04-12T14:45:00.000Z,1.75
2023-04-12T15:00:00.000Z,2.16
2023-04-12T15:15:00.000Z,1.67
2023-04-12T15:30:00.000Z,1.56
2023-04-12T15:45:00.000Z,2.35
2023-04-12T16:00:00.000Z,1.57
2023-04-12T16:15:00.000Z,1.79
2023-04-12T16:30:00.000Z,3.14
2023-04-12T16:45:00.000Z,4.74
2023-04-12T17:00:00.000Z,6.41
2023-04-12T17:15:00.000Z,4.98
2023-04-12T17:30:00.000Z,3.55
2023-04-12T17:45:00.000Z,8.03
2023-04-12T18:00:00.000Z,3.43
2023-04-12T18:15:00.000Z,4.04
2023-04-12T18:30:00.000Z,6.15
2023-04-12T18:45:00.000Z,5.4
2023-04-12T19:00:00.000Z,4.95
2023-04-12T19:15:00.000Z,5.64
2023-04-12T19:30:00.000Z,7.68
2023-04-12T19:45:00.000Z,8.59
2023-04-12T20:00:00.000Z,9.76
2023-04-12T20:15:00.000Z,12.41
2023-04-12T20:30:00.000Z,10.67
2023-04-12T20:45:00.000Z,3.27
2023-04-12T21:00:00.000Z,1.74
2023-04-12T21:15:00.000Z,1.72
2023-04-12T21:30:00.000Z,1.43
2023-04-12T21:45:00.000Z,1.17
2023-04-12T22:00:00.000Z,1.1
2023-04-12T22:15:00.000Z,1.14
2023-04-12T22:30:00.000Z,1.11
2023-04-12T22:45:00.000Z,1.35
2023-04-12T23:00:00.000Z,1.09
2023-04-12T23:15:00.000Z,1.04
2023-04-12T23:30:00.000Z,1.12
2023-04-12T23:45:00.000Z,1.11
